createdAt,value
2018-07-16T12:00:59.342Z,37.90
2018-07-16T12:03:28.138Z,37.40
2018-07-16T12:05:56.805Z,36.90
2018-07-16T12:08:25.531Z,37.40
2018-07-16T12:10:54.197Z,36.70
2018-07-16T12:13:22.933Z,36.50
2018-07-16T12:15:51.625Z,37.30
2018-07-16T12:18:20.313Z,37.80
2018-07-16T12:20:48.974Z,37.10
2018-07-16T12:23:17.685Z,38.30
2018-07-16T12:25:46.378Z,38.20
2018-07-16T12:28:15.075Z,39.10
2018-07-16T12:30:43.898Z,38.70
2018-07-16T12:33:12.679Z,38.90
2018-07-16T12:35:41.435Z,39.10
2018-07-16T12:38:10.158Z,39.00
2018-07-16T12:40:38.988Z,38.40
2018-07-16T12:43:07.867Z,38.20
2018-07-16T12:45:36.704Z,38.20
2018-07-16T12:48:05.622Z,38.50
2018-07-16T12:50:34.378Z,38.80
2018-07-16T12:53:03.055Z,39.10
2018-07-16T12:55:31.903Z,38.60
2018-07-16T12:58:00.710Z,38.70
2018-07-16T13:00:29.540Z,38.00
2018-07-16T13:02:58.350Z,37.90
2018-07-16T13:05:27.192Z,37.90
2018-07-16T13:07:56.066Z,38.30
2018-07-16T13:10:24.926Z,37.80
2018-07-16T13:12:53.716Z,37.50
2018-07-16T13:15:22.536Z,37.50
2018-07-16T13:17:51.344Z,37.40
2018-07-16T13:20:20.262Z,37.20
2018-07-16T13:22:49.092Z,36.90
2018-07-16T13:25:17.882Z,36.90
2018-07-16T13:27:46.753Z,37.20
2018-07-16T13:30:15.464Z,37.70
2018-07-16T13:32:44.542Z,37.60
2018-07-16T13:35:13.330Z,37.70
2018-07-16T13:37:42.286Z,38.20
2018-07-16T13:40:11.141Z,38.40
2018-07-16T13:42:39.976Z,38.10
2018-07-16T13:45:08.844Z,38.20
2018-07-16T13:47:37.699Z,38.60
2018-07-16T13:50:06.629Z,38.60
2018-07-16T13:52:35.661Z,38.90
2018-07-16T13:55:04.550Z,38.50
2018-07-16T13:57:33.217Z,39.00
2018-07-16T14:00:02.233Z,40.00
2018-07-16T14:02:30.879Z,37.70
2018-07-16T14:04:59.795Z,37.20
2018-07-16T14:07:28.841Z,37.50
2018-07-16T14:09:57.771Z,38.40
2018-07-16T14:12:26.471Z,38.60
2018-07-16T14:14:55.523Z,37.90
2018-07-16T14:17:24.247Z,37.70
2018-07-16T14:19:53.020Z,37.60
2018-07-16T14:22:21.799Z,37.10
2018-07-16T14:24:50.552Z,37.60
2018-07-16T14:27:19.208Z,37.80
2018-07-16T14:29:49.060Z,38.20
2018-07-16T14:32:17.768Z,38.40
2018-07-16T14:34:46.520Z,39.00
2018-07-16T14:37:15.198Z,37.50
2018-07-16T14:39:44.069Z,38.00
2018-07-16T14:42:12.724Z,38.20
2018-07-16T14:44:41.567Z,38.00
2018-07-16T14:47:10.383Z,37.90
2018-07-16T14:49:39.092Z,38.20
2018-07-16T14:52:07.884Z,38.80
2018-07-16T14:54:36.810Z,37.80
2018-07-16T14:57:05.747Z,38.40
2018-07-16T14:59:35.012Z,37.70
2018-07-16T15:02:03.772Z,38.30
2018-07-16T15:04:32.578Z,39.00
2018-07-16T15:07:01.413Z,38.50
2018-07-16T15:09:30.150Z,39.20
2018-07-16T15:11:58.815Z,38.40
2018-07-16T15:14:27.769Z,38.50
2018-07-16T15:16:56.465Z,38.80
2018-07-16T15:19:25.325Z,39.00
2018-07-16T15:21:55.053Z,39.20
2018-07-16T15:24:23.863Z,39.30
2018-07-16T15:26:52.602Z,39.30
2018-07-16T15:29:21.656Z,39.80
2018-07-16T15:31:50.587Z,39.40
2018-07-16T15:34:19.940Z,39.90
2018-07-16T15:36:48.762Z,39.70
2018-07-16T15:39:17.490Z,39.90
2018-07-16T15:41:46.885Z,40.20
2018-07-16T15:44:15.781Z,40.90
2018-07-16T15:46:44.820Z,40.00
2018-07-16T15:49:13.644Z,40.20
2018-07-16T15:51:42.288Z,39.60
2018-07-16T15:54:11.123Z,39.60
2018-07-16T15:56:40.010Z,39.60
2018-07-16T15:59:08.773Z,39.50
2018-07-16T16:01:37.550Z,39.10
2018-07-16T16:04:07.137Z,39.50
2018-07-16T16:06:36.136Z,39.50
2018-07-16T16:09:07.418Z,39.20
2018-07-16T16:11:36.165Z,39.90
2018-07-16T16:14:05.581Z,39.50
2018-07-16T16:16:34.251Z,39.10
2018-07-16T16:19:02.969Z,39.30
2018-07-16T16:21:31.803Z,38.50
2018-07-16T16:24:00.568Z,38.50
2018-07-16T16:26:29.308Z,38.80
2018-07-16T16:28:57.990Z,39.30
2018-07-16T16:31:26.688Z,39.10
2018-07-16T16:33:55.424Z,39.50
2018-07-16T16:36:24.187Z,38.80
2018-07-16T16:38:52.918Z,38.50
2018-07-16T16:41:21.624Z,38.90
2018-07-16T16:43:50.311Z,39.40
2018-07-16T16:46:19.230Z,38.90
2018-07-16T16:48:47.944Z,38.80
2018-07-16T16:51:16.649Z,39.10
2018-07-16T16:53:45.327Z,39.90
2018-07-16T16:56:14.022Z,38.80
2018-07-16T16:58:42.771Z,38.90
2018-07-16T17:01:11.420Z,38.50
2018-07-16T17:03:40.152Z,38.70
2018-07-16T17:06:08.890Z,37.30
2018-07-16T17:08:37.681Z,37.70
2018-07-16T17:11:06.412Z,37.30
2018-07-16T17:13:35.082Z,37.70
2018-07-16T17:16:03.808Z,37.80
2018-07-16T17:18:32.585Z,38.50
2018-07-16T17:21:01.304Z,38.30
2018-07-16T17:23:30.063Z,38.60
2018-07-16T17:25:58.754Z,39.00
2018-07-16T17:28:27.470Z,39.30
2018-07-16T17:30:56.198Z,39.30
2018-07-16T17:33:25.197Z,39.40
2018-07-16T17:35:54.283Z,40.10
2018-07-16T17:38:22.988Z,39.90
2018-07-16T17:40:52.088Z,40.20
2018-07-16T17:43:21.158Z,40.80
2018-07-16T17:45:49.949Z,40.30
2018-07-16T17:48:18.595Z,40.60
2018-07-16T17:50:47.288Z,41.10
2018-07-16T17:53:16.036Z,41.90
2018-07-16T17:55:44.752Z,41.80
2018-07-16T17:58:13.594Z,41.50
2018-07-16T18:00:42.249Z,41.70
2018-07-16T18:03:10.953Z,42.00
2018-07-16T18:05:39.653Z,42.10
2018-07-16T18:08:08.337Z,42.20
2018-07-16T18:10:37.017Z,42.70
2018-07-16T18:13:05.720Z,42.50
2018-07-16T18:15:34.426Z,42.50
2018-07-16T18:18:03.215Z,42.60
2018-07-16T18:20:31.973Z,42.50
2018-07-16T18:23:00.689Z,42.90
2018-07-16T18:25:29.403Z,43.20
2018-07-16T18:27:58.127Z,43.20
2018-07-16T18:30:27.071Z,43.20
2018-07-16T18:32:55.749Z,43.40
2018-07-16T18:35:24.578Z,43.60
2018-07-16T18:37:53.233Z,43.60
2018-07-16T18:40:21.989Z,43.70
2018-07-16T18:42:50.674Z,43.90
2018-07-16T18:45:19.363Z,44.10
2018-07-16T18:47:48.139Z,44.30
2018-07-16T18:50:16.849Z,44.60
2018-07-16T18:52:45.558Z,44.30
2018-07-16T18:55:14.390Z,44.50
2018-07-16T18:57:43.249Z,44.80
2018-07-16T19:00:11.990Z,49.10
2018-07-16T19:02:40.707Z,50.30
2018-07-16T19:05:09.422Z,52.50
2018-07-16T19:07:38.097Z,53.60
2018-07-16T19:10:06.874Z,53.60
2018-07-16T19:12:35.578Z,54.90
2018-07-16T19:15:10.478Z,55.30
2018-07-16T19:17:39.172Z,56.10
2018-07-16T19:20:07.990Z,56.30
2018-07-16T19:22:36.710Z,56.90
2018-07-16T19:25:05.440Z,56.80
2018-07-16T19:27:34.372Z,56.80
2018-07-16T19:30:03.069Z,57.10
2018-07-16T19:32:31.752Z,57.00
2018-07-16T19:35:00.834Z,57.30
2018-07-16T19:37:29.790Z,56.90
2018-07-16T19:39:58.652Z,57.20
2018-07-16T19:42:27.332Z,57.30
2018-07-16T19:44:56.152Z,57.30
2018-07-16T19:47:24.833Z,56.80
2018-07-16T19:49:53.523Z,56.50
2018-07-16T19:52:22.201Z,56.50
2018-07-16T19:54:50.902Z,57.00
2018-07-16T19:57:19.610Z,57.00
2018-07-16T19:59:48.321Z,57.00
2018-07-16T20:02:17.021Z,57.30
2018-07-16T20:04:46.285Z,57.50
2018-07-16T20:07:15.078Z,57.20
2018-07-16T20:09:43.815Z,57.90
2018-07-16T20:12:30.062Z,57.60
2018-07-16T20:14:59.498Z,58.00
2018-07-16T20:17:28.278Z,57.80
2018-07-16T20:19:57.427Z,58.00
2018-07-16T20:22:26.341Z,57.90
2018-07-16T20:24:55.129Z,58.40
2018-07-16T20:27:23.798Z,58.00
2018-07-16T20:29:52.727Z,58.00
2018-07-16T20:32:21.472Z,58.00
2018-07-16T20:34:50.147Z,58.30
2018-07-16T20:37:18.979Z,58.20
2018-07-16T20:39:47.677Z,58.60
2018-07-16T20:42:16.410Z,58.40
2018-07-16T20:44:45.104Z,59.20
2018-07-16T20:47:13.851Z,59.40
2018-07-16T20:49:42.530Z,59.30
2018-07-16T20:52:11.286Z,60.00
2018-07-16T20:54:39.977Z,59.70
2018-07-16T20:57:08.811Z,59.90
2018-07-16T20:59:37.477Z,59.60
2018-07-16T21:02:06.582Z,60.00
2018-07-16T21:04:35.264Z,60.20
2018-07-16T21:07:03.946Z,60.70
2018-07-16T21:09:32.635Z,60.90
2018-07-16T21:12:01.401Z,60.90
2018-07-16T21:16:58.535Z,61.10
2018-07-16T21:19:27.226Z,61.20
2018-07-16T21:21:55.905Z,61.30
2018-07-16T21:24:24.609Z,61.80
2018-07-16T21:26:53.312Z,61.90
2018-07-16T21:29:22.034Z,61.90
2018-07-16T21:31:50.712Z,62.40
2018-07-16T21:34:19.410Z,62.80
2018-07-16T21:36:48.124Z,62.80
2018-07-16T21:39:16.814Z,63.50
2018-07-16T21:41:45.768Z,63.60
2018-07-16T21:44:14.458Z,63.70
2018-07-16T21:46:43.124Z,63.70
2018-07-16T21:49:11.814Z,64.00
2018-07-16T21:51:40.496Z,64.20
2018-07-16T21:54:09.164Z,64.50
2018-07-16T21:56:37.836Z,64.70
2018-07-16T21:59:06.733Z,64.80
2018-07-16T22:01:35.428Z,65.00
2018-07-16T22:04:04.114Z,65.30
2018-07-16T22:06:32.791Z,65.60
2018-07-16T22:09:01.508Z,65.60
2018-07-16T22:11:30.196Z,65.30
2018-07-16T22:13:58.997Z,65.60
2018-07-16T22:16:27.675Z,65.70
2018-07-16T22:18:56.372Z,65.70
2018-07-16T22:21:25.108Z,66.00
2018-07-16T22:23:53.782Z,66.40
2018-07-16T22:26:22.460Z,66.30
2018-07-16T22:28:51.120Z,66.70
2018-07-16T22:31:19.798Z,66.80
2018-07-16T22:33:48.504Z,67.50
2018-07-16T22:36:17.185Z,67.00
2018-07-16T22:38:45.845Z,67.50
2018-07-16T22:41:14.548Z,67.70
2018-07-16T22:43:43.265Z,67.70
2018-07-16T22:46:11.952Z,68.00
2018-07-16T22:48:40.635Z,67.50
2018-07-16T22:51:09.489Z,67.80
2018-07-16T22:53:38.177Z,68.20
2018-07-16T22:56:06.858Z,67.80
2018-07-16T22:58:35.552Z,68.20
2018-07-16T23:01:04.239Z,68.70
2018-07-16T23:03:32.988Z,68.70
2018-07-16T23:06:01.736Z,68.90
2018-07-16T23:08:30.417Z,68.90
2018-07-16T23:10:59.119Z,69.00
2018-07-16T23:13:27.789Z,69.30
2018-07-16T23:15:56.461Z,69.50
2018-07-16T23:18:25.133Z,69.90
2018-07-16T23:20:53.821Z,69.80
2018-07-16T23:23:22.502Z,70.10
2018-07-16T23:25:51.216Z,70.90
2018-07-16T23:28:20.043Z,70.60
2018-07-16T23:30:48.799Z,70.80
2018-07-16T23:33:17.507Z,70.80
2018-07-16T23:38:14.683Z,70.70
2018-07-16T23:40:43.325Z,71.90
2018-07-16T23:43:11.998Z,71.50
2018-07-16T23:45:40.685Z,71.00
2018-07-16T23:48:09.370Z,70.80
2018-07-16T23:50:38.080Z,71.40
2018-07-16T23:53:06.811Z,71.30
2018-07-16T23:55:35.484Z,71.40
2018-07-16T23:58:04.182Z,71.70
